Conover, WI

1:44 AM CDT on October 23, 2014 (GMT -0500)
Kings Land O'Lakes | Change Station
CLOSE
Current Station
Airport
Location: Land O' Lakes,
Elevation: 1706 ft
Nearby Weather Stations

Elev 1706 ft 46.15 °N, 89.21 °W | Updated 9 minutes ago

Mostly Cloudy
Mostly Cloudy
43 °F
Feels Like 39 °F
N
6
Wind Variable Wind from South

Today
High -- | Low -- °F
--% Chance of Precip.
Yesterday
High -- | Low -- °F
Precip. -- in
7:25 AM 5:57 PM
Waning Crescent, 0% visible
Pressure 30.12 in
Visibility 10.0 miles
Clouds Mostly Cloudy 6000 ft
Mostly Cloudy 7500 ft
Mostly Cloudy 9000 ft
Windchill 39 °F
Dew Point 36 °F
Humidity 78%
Rainfall 0.00 in
Snow Depth Not available.
UV 0 out of 12
Pollen .10 out of 12
Air Quality Not available.
Flu Activity Sporadic
METAR KLNL 230635Z AUTO 18005KT 10SM BKN060 BKN075 BKN090 06/03 A3012 RMK AO2 T00600025

More Conditions Fewer Conditions

Pressure 30.12 in
Visibility 10.0 miles
Clouds Mostly Cloudy 6000 ft
Mostly Cloudy 7500 ft
Mostly Cloudy 9000 ft
Windchill 39 °F
Dew Point 36 °F
Humidity 78%
Rainfall 0.00 in
Snow Depth Not available.
UV 0 out of 12
Pollen .10 out of 12
Air Quality Not available.
Flu Activity Sporadic
METAR KLNL 230635Z AUTO 18005KT 10SM BKN060 BKN075 BKN090 06/03 A3012 RMK AO2 T00600025

More Conditions Fewer Conditions

10-Day Weather Forecast

Almanac

Astronomy

Oct. 23, 2014 Rise Set
Actual Time 7:25 AM CDT 5:57 PM CDT
Civil Twilight 6:54 AM CDT 6:27 PM CDT
Nautical Twilight 6:19 AM CDT 7:02 PM CDT
Astronomical Twilight 5:44 AM CDT 7:37 PM CDT
Moon 7:03 AM CDT 5:58 PM CDT
Length of Visible Light 11h 33m
Length of Day
10h 32m
Tomorrow will be 3m 3s shorter.
Waning Crescent, 0% of the Moon is Illuminated
Today
Waning Crescent
Oct 23
New
Oct 30
First Quarter
Nov 6
Full
Nov 14
Last Quarter

Today's Extremes

State Highs State Lows

Community

WunderPhotos

Upload Photos

1,764,194 photos uploaded!

Nearby

Snow Depth

Station Depth Elevation
No new snow has been reported.

Earthquake Activity

City Distance Mag. Time & Date
No recent earthquake activity has been reported nearby.
Minimum magnitude displayed is 2.5.

Coastal Water Temperatures

Place Temperature
No Stations Reporting

Nearby Weather Stations